Startpagina
METAR-TAF:

METAR-TAF

Vliegvelden :

Sarakhs, Iran

breedte: 36-30-04N, lengte: 061-03-54E, hoogte: 288 m

Actueel weer

Dit bericht is 1 uur en het 4 minuten geleden gemaakt, om 16:00 UTC
Wind 10 kt uit het westen
Temperatuur 3°C
Vochtigheid 75%
Druk 1021 hPa
Zicht 10 km of meer
Weinig wolken op 3500 ft
Gebroken wolken op 10000 ft
Geheel bewolkt op 18000 ft

METAR: OIMC 181600Z 27010KT 9999 FEW035 BKN100 OVC180 03/M01 Q1021

Tijdstip: 20:34 (17:04 UTC)


TAF: ontbreekt

Waarnemingen en weersverwachtingen van meer dan 4000 vliegvelden (METAR en TAF).

De beschikbare stations zijn de gele en rode punten op de kaart.

Ga met uw muis naar het station om de naam te zien.

Klik dan om waarnemingen en weersverwachtingen te zien.

kaart wijzigen: klik op de groene knoppen met een zwart kruis om in te zoomen, op de groene knop met een streepje om uit te zoomen of op de groene pijlen voor aangrenzende kaarten.


METAR-TAF: